Time;durP1;ratioP1;P1;durP2;ratioP2;P2;SDS_P1;SDS_P2;PMS_P1;PMS_P2;Temp;Humidity;BMP_temperature;BMP_pressure;BME280_temperature;BME280_humidity;BME280_pressure;Samples;Min_cycle;Max_cycle;Signal;HPM_P1;HPM_P2
2021/10/11 00:00:59;;;;;;;1999.90;999.90;;;;;;;4.47;45.07;101948.44;6177384;22;99081;-69
2021/10/11 00:03:27;;;;;;;1999.90;999.90;;;;;;;4.46;45.12;101946.63;6231500;22;96690;-71
2021/10/11 00:05:55;;;;;;;1999.90;999.90;;;;;;;4.42;45.01;101944.59;6231307;22;97315;-70
2021/10/11 00:08:23;;;;;;;1999.90;999.90;;;;;;;4.39;45.31;101940.03;6230422;22;97361;-70
2021/10/11 00:10:53;;;;;;;1999.90;999.90;;;;;;;4.36;45.45;101933.66;6229425;22;97451;-71
2021/10/11 00:13:22;;;;;;;1999.90;999.90;;;;;;;4.32;45.21;101936.94;6231078;22;97190;-70
2021/10/11 00:15:49;;;;;;;1999.90;999.90;;;;;;;4.29;45.20;101942.91;6203398;22;97327;-69
2021/10/11 00:18:18;;;;;;;1999.90;999.90;;;;;;;4.23;45.11;101924.97;6202297;22;99365;-70
2021/10/11 00:20:46;;;;;;;1999.90;999.90;;;;;;;4.17;45.41;101932.47;6231316;22;97761;-69
2021/10/11 00:23:15;;;;;;;1999.90;999.90;;;;;;;4.13;45.38;101930.44;6231354;22;97462;-71
2021/10/11 00:25:42;;;;;;;1999.90;999.90;;;;;;;4.08;45.66;101918.69;6230675;22;97454;-70
2021/10/11 00:28:11;;;;;;;1999.90;999.90;;;;;;;4.05;45.58;101915.88;6229730;22;97690;-69
2021/10/11 00:30:39;;;;;;;1999.90;999.90;;;;;;;4.04;45.48;101914.03;6203275;22;99042;-69
2021/10/11 00:33:07;;;;;;;1999.90;999.90;;;;;;;4.01;45.72;101911.22;6177498;22;97026;-69
2021/10/11 00:35:35;;;;;;;1999.90;999.90;;;;;;;4.00;45.48;101919.94;6231109;22;97400;-69
2021/10/11 00:38:03;;;;;;;1999.90;999.90;;;;;;;4.00;45.60;101916.38;6203097;22;100346;-70
2021/10/11 00:40:31;;;;;;;1999.90;999.90;;;;;;;3.97;45.57;101917.09;6232654;22;98711;-70
2021/10/11 00:42:59;;;;;;;1999.90;999.90;;;;;;;3.97;45.59;101911.81;6232522;22;96685;-70
2021/10/11 00:45:28;;;;;;;1999.90;999.90;;;;;;;3.98;45.82;101911.03;6203700;22;97340;-71
2021/10/11 00:47:57;;;;;;;1999.90;999.90;;;;;;;3.99;45.67;101911.91;6203163;22;100662;-68
2021/10/11 00:50:24;;;;;;;1999.90;999.90;;;;;;;3.97;45.59;101900.41;6202698;22;98824;-71
2021/10/11 00:52:52;;;;;;;1999.90;999.90;;;;;;;3.98;45.87;101895.22;6231488;22;96995;-70
2021/10/11 00:55:20;;;;;;;1999.90;999.90;;;;;;;3.97;46.37;101895.13;6203527;22;97244;-69
2021/10/11 00:57:47;;;;;;;1999.90;999.90;;;;;;;3.97;45.85;101896.00;6230620;22;96979;-71
2021/10/11 01:00:15;;;;;;;1999.90;999.90;;;;;;;3.96;45.71;101899.47;6230125;22;98877;-72
2021/10/11 01:02:44;;;;;;;1999.90;999.90;;;;;;;3.94;45.93;101895.81;6230608;22;97466;-69
2021/10/11 01:05:12;;;;;;;1999.90;999.90;;;;;;;3.93;46.07;101896.63;6230901;22;96763;-72
2021/10/11 01:07:40;;;;;;;1999.90;999.90;;;;;;;3.92;45.96;101892.19;6201965;22;100311;-71
2021/10/11 01:10:08;;;;;;;1999.90;999.90;;;;;;;3.90;45.74;101883.25;6230422;22;99006;-70
2021/10/11 01:12:36;;;;;;;1999.90;999.90;;;;;;;3.88;46.11;101878.69;6230914;22;97207;-71
2021/10/11 01:15:05;;;;;;;1999.90;999.90;;;;;;;3.85;46.16;101878.50;6231315;22;97447;-70
2021/10/11 01:17:32;;;;;;;1999.90;999.90;;;;;;;3.85;45.97;101878.50;6229774;22;97378;-70
2021/10/11 01:20:02;;;;;;;1999.90;999.90;;;;;;;3.83;45.91;101880.13;6229841;22;97468;-70
2021/10/11 01:22:36;;;;;;;1999.90;999.90;;;;;;;3.79;46.19;101884.28;6231536;22;97375;-69
2021/10/11 01:25:05;;;;;;;1999.90;999.90;;;;;;;3.79;46.12;101879.00;6230047;22;96791;-72
2021/10/11 01:27:33;;;;;;;1999.90;999.90;;;;;;;3.77;46.29;101872.72;6202440;22;99112;-71
2021/10/11 01:30:00;;;;;;;1999.90;999.90;;;;;;;3.75;46.11;101866.47;6230134;22;96663;-70
2021/10/11 01:32:28;;;;;;;1999.90;999.90;;;;;;;3.75;46.16;101863.81;6203936;22;96607;-71
2021/10/11 01:34:56;;;;;;;1999.90;999.90;;;;;;;3.75;46.21;101866.47;6202193;22;97368;-70
2021/10/11 01:37:25;;;;;;;1999.90;999.90;;;;;;;3.74;46.05;101861.09;6229812;22;96594;-70
2021/10/11 01:39:53;;;;;;;1999.90;999.90;;;;;;;3.72;46.49;101861.00;6202616;22;97903;-70
2021/10/11 01:42:20;;;;;;;1999.90;999.90;;;;;;;3.71;46.49;101864.47;6230334;22;97113;-70
2021/10/11 01:44:48;;;;;;;1999.90;999.90;;;;;;;3.71;45.91;101858.28;6230099;22;96568;-69
2021/10/11 01:47:16;;;;;;;1999.90;999.90;;;;;;;3.71;46.18;101861.84;6229588;22;97336;-71
2021/10/11 01:49:44;;;;;;;1999.90;999.90;;;;;;;3.71;46.24;101853.00;6230703;22;97715;-70
2021/10/11 01:52:12;;;;;;;1999.90;999.90;;;;;;;3.72;46.21;101854.81;6202573;22;97149;-70
2021/10/11 01:54:41;;;;;;;1999.90;999.90;;;;;;;3.71;46.04;101843.41;6230221;22;97453;-69
2021/10/11 01:57:09;;;;;;;1999.90;999.90;;;;;;;3.70;46.23;101846.81;6202095;22;98059;-69
2021/10/11 01:59:36;;;;;;;1999.90;999.90;;;;;;;3.71;46.50;101848.66;6230190;22;97449;-69
2021/10/11 02:02:04;;;;;;;1999.90;999.90;;;;;;;3.70;46.31;101841.56;6199999;22;97298;-69
2021/10/11 02:04:32;;;;;;;1999.90;999.90;;;;;;;3.71;46.63;101837.22;6229273;22;97483;-71
2021/10/11 02:07:03;;;;;;;1999.90;999.90;;;;;;;3.70;46.72;101838.00;6201303;22;100499;-69
2021/10/11 02:09:31;;;;;;;1999.90;999.90;;;;;;;3.69;46.61;101839.75;6202271;22;97608;-68
2021/10/11 02:12:00;;;;;;;1999.90;999.90;;;;;;;3.71;46.68;101831.94;6228413;22;97466;-71
2021/10/11 02:14:28;;;;;;;1999.90;999.90;;;;;;;3.70;46.43;101825.78;6228134;22;96775;-69
2021/10/11 02:16:58;;;;;;;1999.90;999.90;;;;;;;3.71;46.58;101837.22;6230287;22;97553;-70
2021/10/11 02:19:25;;;;;;;1999.90;999.90;;;;;;;3.72;46.27;101828.50;6202416;22;97614;-68
2021/10/11 02:21:53;;;;;;;1999.90;999.90;;;;;;;3.71;46.58;101832.88;6202582;22;97372;-67
2021/10/11 02:24:22;;;;;;;1999.90;999.90;;;;;;;3.72;46.54;101839.94;6203071;22;97383;-70
2021/10/11 02:26:50;;;;;;;1999.90;999.90;;;;;;;3.70;46.44;101831.03;6201908;22;99356;-69
2021/10/11 02:29:19;;;;;;;1999.90;999.90;;;;;;;3.70;46.70;101825.78;6229655;22;97541;-70
2021/10/11 02:31:47;;;;;;;1999.90;999.90;;;;;;;3.73;46.23;101822.44;6230837;22;96926;-71
2021/10/11 02:34:15;;;;;;;1999.90;999.90;;;;;;;3.75;46.39;101831.34;6230255;22;96774;-70
2021/10/11 02:36:42;;;;;;;1999.90;999.90;;;;;;;3.75;46.66;101829.59;6228822;22;98806;-70
2021/10/11 02:39:10;;;;;;;1999.90;999.90;;;;;;;3.76;46.50;101826.19;6229627;22;97519;-70
2021/10/11 02:41:38;;;;;;;1999.90;999.90;;;;;;;3.79;46.65;101828.06;6203160;22;97538;-71
2021/10/11 02:44:06;;;;;;;1999.90;999.90;;;;;;;3.77;46.88;101822.72;6229085;22;96762;-71
2021/10/11 02:46:35;;;;;;;1999.90;999.90;;;;;;;3.77;46.35;101830.63;6229333;22;97563;-70
2021/10/11 02:49:03;;;;;;;1999.90;999.90;;;;;;;3.78;46.87;101818.38;6228948;22;97582;-72
2021/10/11 02:51:31;;;;;;;1999.90;999.90;;;;;;;3.80;46.54;101816.75;6177024;22;96644;-70
2021/10/11 02:53:58;;;;;;;1999.90;999.90;;;;;;;3.80;46.40;101817.69;6230115;22;97413;-71
2021/10/11 02:56:26;;;;;;;1999.90;999.90;;;;;;;3.84;46.71;101826.69;6201902;22;100484;-70
2021/10/11 02:58:54;;;;;;;1999.90;999.90;;;;;;;3.84;46.69;101819.66;6229609;22;96603;-70
2021/10/11 03:01:21;;;;;;;1999.90;999.90;;;;;;;3.85;46.96;101813.59;6230525;22;97215;-70
2021/10/11 03:03:51;;;;;;;1999.90;999.90;;;;;;;3.89;46.71;101812.09;6176494;22;97476;-70
2021/10/11 03:06:18;;;;;;;1999.90;999.90;;;;;;;3.95;46.55;101815.13;6228911;22;97671;-70
2021/10/11 03:08:46;;;;;;;1999.90;999.90;;;;;;;3.97;46.29;101813.50;6229302;22;97031;-72
2021/10/11 03:11:14;;;;;;;1999.90;999.90;;;;;;;4.02;46.35;101804.16;6202704;22;96581;-71
2021/10/11 03:13:42;;;;;;;1999.90;999.90;;;;;;;4.05;46.27;101809.59;6230333;22;97186;-71
2021/10/11 03:16:09;;;;;;;1999.90;999.90;;;;;;;4.09;46.53;101804.66;6203082;22;97591;-71
2021/10/11 03:18:38;;;;;;;1999.90;999.90;;;;;;;4.11;46.56;101805.66;6230917;22;97308;-71
2021/10/11 03:21:07;;;;;;;1999.90;999.90;;;;;;;4.13;46.42;101795.22;6203611;22;97026;-72
2021/10/11 03:23:35;;;;;;;1999.90;999.90;;;;;;;4.16;46.46;101796.31;6203170;22;97024;-70
2021/10/11 03:26:03;;;;;;;1999.90;999.90;;;;;;;4.18;46.45;101792.06;6230743;22;98758;-71
2021/10/11 03:28:31;;;;;;;1999.90;999.90;;;;;;;4.20;46.15;101786.88;6202999;22;97761;-70
2021/10/11 03:30:58;;;;;;;1999.90;999.90;;;;;;;4.22;46.36;101787.88;6231664;22;96481;-70
2021/10/11 03:33:27;;;;;;;1999.90;999.90;;;;;;;4.28;46.36;101782.09;6230933;22;97583;-70
2021/10/11 03:35:55;;;;;;;1999.90;999.90;;;;;;;4.27;46.51;101785.53;6229901;22;97497;-70
2021/10/11 03:38:24;;;;;;;1999.90;999.90;;;;;;;4.29;46.30;101779.53;6202554;22;98192;-72
2021/10/11 03:40:52;;;;;;;1999.90;999.90;;;;;;;4.30;46.62;101773.44;6203552;22;96663;-69
2021/10/11 03:43:20;;;;;;;1999.90;999.90;;;;;;;4.30;46.27;101777.81;6231112;22;97213;-71
2021/10/11 03:45:50;;;;;;;1999.90;999.90;;;;;;;4.29;46.40;101781.25;6230857;22;97649;-71
2021/10/11 03:48:18;;;;;;;1999.90;999.90;;;;;;;4.26;46.39;101768.81;6230103;22;98883;-70
2021/10/11 03:50:46;;;;;;;1999.90;999.90;;;;;;;4.22;46.53;101778.22;6230344;22;97140;-71
2021/10/11 03:53:14;;;;;;;1999.90;999.90;;;;;;;4.19;46.92;101779.78;6202850;22;97834;-70
2021/10/11 03:55:43;;;;;;;1999.90;999.90;;;;;;;4.15;46.59;101769.88;6230005;22;97576;-73
2021/10/11 03:58:11;;;;;;;1999.90;999.90;;;;;;;4.12;46.85;101777.56;6201939;22;97552;-71
2021/10/11 04:00:39;;;;;;;1999.90;999.90;;;;;;;4.08;47.09;101779.09;6229199;22;97312;-72
2021/10/11 04:03:08;;;;;;;1999.90;999.90;;;;;;;4.07;47.13;101782.56;6202104;22;97124;-70
2021/10/11 04:05:37;;;;;;;1999.90;999.90;;;;;;;4.07;47.06;101774.66;6228390;22;97714;-71
2021/10/11 04:08:10;;;;;;;1999.90;999.90;;;;;;;4.07;47.13;101782.56;6227165;22;100891;-72
2021/10/11 04:10:43;;;;;;;1999.90;999.90;;;;;;;4.06;47.21;101767.56;6203525;22;97120;-71
2021/10/11 04:13:19;;;;;;;1999.90;999.90;;;;;;;4.07;47.18;101772.03;6231419;22;97484;-70
2021/10/11 04:15:48;;;;;;;1999.90;999.90;;;;;;;4.08;47.07;101763.31;6203090;22;100462;-72
2021/10/11 04:18:16;;;;;;;1999.90;999.90;;;;;;;4.08;47.26;101776.47;6202146;22;99632;-71
2021/10/11 04:20:44;;;;;;;1999.90;999.90;;;;;;;4.09;47.37;101764.22;6231521;22;96907;-71
2021/10/11 04:23:12;;;;;;;1999.90;999.90;;;;;;;4.09;47.47;101773.03;6230859;22;97324;-72
2021/10/11 04:25:39;;;;;;;1999.90;999.90;;;;;;;4.08;47.54;101771.19;6201090;22;100510;-72
2021/10/11 04:28:10;;;;;;;1999.90;999.90;;;;;;;4.07;47.25;101758.88;6201292;22;99677;-71
2021/10/11 04:30:41;;;;;;;1999.90;999.90;;;;;;;4.08;47.29;101763.31;6230828;22;96767;-71
2021/10/11 04:33:09;;;;;;;1999.90;999.90;;;;;;;4.09;47.25;101759.88;6203898;22;97527;-71
2021/10/11 04:35:36;;;;;;;1999.90;999.90;;;;;;;4.07;47.39;101756.22;6229336;22;97568;-71
2021/10/11 04:38:04;;;;;;;1999.90;999.90;;;;;;;4.09;47.58;101754.59;6230038;22;97845;-72
2021/10/11 04:40:33;;;;;;;1999.90;999.90;;;;;;;4.10;47.29;101755.50;6230473;22;97458;-72
2021/10/11 04:43:01;;;;;;;1999.90;999.90;;;;;;;4.12;47.14;101754.78;6229329;22;97609;-71
2021/10/11 04:45:29;;;;;;;1999.90;999.90;;;;;;;4.15;47.48;101756.72;6228943;22;99191;-71
2021/10/11 04:48:00;;;;;;;1999.90;999.90;;;;;;;4.16;47.57;101750.63;6227421;22;99314;-70
2021/10/11 04:50:29;;;;;;;1999.90;999.90;;;;;;;4.18;47.70;101760.44;6227512;22;96897;-71
2021/10/11 04:52:57;;;;;;;1999.90;999.90;;;;;;;4.19;47.58;101753.44;6228744;22;97053;-72
2021/10/11 04:55:25;;;;;;;1999.90;999.90;;;;;;;4.21;47.62;101755.34;6201194;22;100385;-71
2021/10/11 04:57:53;;;;;;;1999.90;999.90;;;;;;;4.24;47.52;101754.66;6201666;22;99622;-73
2021/10/11 05:00:20;;;;;;;1999.90;999.90;;;;;;;4.28;47.44;101750.47;6231343;22;96607;-72
2021/10/11 05:02:48;;;;;;;1999.90;999.90;;;;;;;4.32;47.32;101747.22;6201597;22;97255;-72
2021/10/11 05:05:17;;;;;;;1999.90;999.90;;;;;;;4.34;47.41;101749.09;6200849;22;98632;-71
2021/10/11 05:07:45;;;;;;;1999.90;999.90;;;;;;;4.39;47.34;101741.50;6227454;22;100773;-72
2021/10/11 05:10:13;;;;;;;1999.90;999.90;;;;;;;4.44;47.51;101740.97;6228669;22;96980;-70
2021/10/11 05:12:40;;;;;;;1999.90;999.90;;;;;;;4.50;47.23;101737.78;6230674;22;96680;-70
2021/10/11 05:15:09;;;;;;;1999.90;999.90;;;;;;;4.52;47.25;101737.06;6230496;22;97905;-72
2021/10/11 05:17:37;;;;;;;1999.90;999.90;;;;;;;4.54;47.48;101730.16;6202499;22;99095;-71
2021/10/11 05:20:06;;;;;;;1999.90;999.90;;;;;;;4.59;47.25;101744.50;6202256;22;97253;-70
2021/10/11 05:22:35;;;;;;;1999.90;999.90;;;;;;;4.63;47.25;101735.06;6228581;22;96657;-70
2021/10/11 05:25:03;;;;;;;1999.90;999.90;;;;;;;4.66;47.14;101733.53;6201458;22;99327;-71
2021/10/11 05:27:31;;;;;;;1999.90;999.90;;;;;;;4.71;47.29;101742.63;6201563;22;99650;-69
2021/10/11 05:29:59;;;;;;;1999.90;999.90;;;;;;;4.73;47.21;101741.00;6203034;22;97282;-70
2021/10/11 05:32:28;;;;;;;1999.90;999.90;;;;;;;4.77;47.40;101735.06;6203306;22;97135;-72
2021/10/11 05:34:58;;;;;;;1999.90;999.90;;;;;;;4.79;47.40;101740.44;6229764;22;97550;-71
2021/10/11 05:37:26;;;;;;;1999.90;999.90;;;;;;;4.79;47.38;101741.34;6229593;22;97438;-69
2021/10/11 05:39:55;;;;;;;1999.90;999.90;;;;;;;4.79;47.53;101743.97;6202477;22;97346;-70
2021/10/11 05:42:23;;;;;;;1999.90;999.90;;;;;;;4.77;47.58;101744.72;6231452;22;97372;-70
2021/10/11 05:44:51;;;;;;;1999.90;999.90;;;;;;;4.75;47.64;101746.34;6230609;22;98574;-71
2021/10/11 05:47:19;;;;;;;1999.90;999.90;;;;;;;4.75;47.66;101743.72;6230688;22;97588;-69
2021/10/11 05:49:47;;;;;;;1999.90;999.90;;;;;;;4.73;48.00;101742.72;6231995;22;97051;-70
2021/10/11 05:52:15;;;;;;;1999.90;999.90;;;;;;;4.74;47.86;101739.25;6203873;22;96872;-71
2021/10/11 05:54:42;;;;;;;1999.90;999.90;;;;;;;4.73;48.13;101746.28;6203009;22;100516;-72
2021/10/11 05:57:11;;;;;;;1999.90;999.90;;;;;;;4.73;48.44;101746.28;6202508;22;99283;-70
2021/10/11 05:59:39;;;;;;;1999.90;999.90;;;;;;;4.73;48.25;101748.00;6204075;22;96706;-72
2021/10/11 06:02:07;;;;;;;1999.90;999.90;;;;;;;4.74;48.14;101741.88;6231500;22;97245;-73
2021/10/11 06:04:35;;;;;;;1999.90;999.90;;;;;;;4.73;48.38;101738.38;6202978;22;99338;-73
2021/10/11 06:07:03;;;;;;;1999.90;999.90;;;;;;;4.73;48.46;101742.72;6202448;22;99228;-71
2021/10/11 06:09:30;;;;;;;1999.90;999.90;;;;;;;4.74;48.57;101744.53;6226931;22;97249;-73
2021/10/11 06:11:58;;;;;;;1999.90;999.90;;;;;;;4.74;48.46;101733.97;6231501;22;97223;-72
2021/10/11 06:14:27;;;;;;;1999.90;999.90;;;;;;;4.73;48.61;101748.00;6229285;22;98631;-72
2021/10/11 06:16:55;;;;;;;1999.90;999.90;;;;;;;4.77;48.73;101744.72;6225825;22;99185;-72
2021/10/11 06:19:23;;;;;;;1999.90;999.90;;;;;;;4.77;48.83;101748.25;6201746;22;97025;-73
2021/10/11 06:21:50;;;;;;;1999.90;999.90;;;;;;;4.77;48.83;101742.97;6228882;22;96942;-71
2021/10/11 06:24:22;;;;;;;1999.90;999.90;;;;;;;4.79;48.88;101741.34;6201460;22;97863;-73
2021/10/11 06:26:50;;;;;;;1999.90;999.90;;;;;;;4.78;49.52;101749.16;6227979;22;99536;-71
2021/10/11 06:29:18;;;;;;;1999.90;999.90;;;;;;;4.79;49.47;101748.38;6202068;22;97230;-71
2021/10/11 06:31:47;;;;;;;1999.90;999.90;;;;;;;4.80;49.47;101739.63;6202219;22;97249;-71
2021/10/11 06:34:14;;;;;;;1999.90;999.90;;;;;;;4.80;49.51;101743.19;6230210;22;97802;-71
2021/10/11 06:36:42;;;;;;;1999.90;999.90;;;;;;;4.81;49.67;101747.63;6229199;22;97608;-71
2021/10/11 06:39:10;;;;;;;1999.90;999.90;;;;;;;4.82;50.20;101741.53;6202974;22;97411;-71
2021/10/11 06:41:38;;;;;;;1999.90;999.90;;;;;;;4.80;50.13;101732.63;6230846;22;96656;-70
2021/10/11 06:44:06;;;;;;;1999.90;999.90;;;;;;;4.82;49.86;101745.91;6230559;22;97750;-70
2021/10/11 06:46:33;;;;;;;1999.90;999.90;;;;;;;4.82;50.41;101744.19;6202336;22;98118;-70
2021/10/11 06:49:03;;;;;;;1999.90;999.90;;;;;;;4.84;50.17;101753.09;6230842;22;97179;-72
2021/10/11 06:51:30;;;;;;;1999.90;999.90;;;;;;;4.86;50.68;101761.09;6231780;22;97269;-73
2021/10/11 06:53:58;;;;;;;1999.90;999.90;;;;;;;4.85;50.85;101769.81;6231833;22;99217;-71
2021/10/11 06:56:26;;;;;;;1999.90;999.90;;;;;;;4.84;51.49;101773.28;6204398;22;97666;-74
2021/10/11 06:58:54;;;;;;;1999.90;999.90;;;;;;;4.83;51.19;101775.00;6231402;22;97165;-72
2021/10/11 07:01:21;;;;;;;1999.90;999.90;;;;;;;4.85;51.12;101780.34;6231455;22;96983;-73
2021/10/11 07:03:49;;;;;;;1999.90;999.90;;;;;;;4.86;51.71;101787.47;6231195;22;98169;-69
2021/10/11 07:06:20;;;;;;;1999.90;999.90;;;;;;;4.88;51.70;101792.00;6203362;22;97981;-71
2021/10/11 07:08:48;;;;;;;1999.90;999.90;;;;;;;4.89;51.60;101783.28;6203567;22;97270;-71
2021/10/11 07:11:16;;;;;;;1999.90;999.90;;;;;;;4.90;52.05;101793.00;6231352;22;97635;-73
2021/10/11 07:13:44;;;;;;;1999.90;999.90;;;;;;;4.93;51.84;101789.63;6231539;22;97079;-72
2021/10/11 07:16:12;;;;;;;1999.90;999.90;;;;;;;4.98;52.05;101804.00;6203000;22;100388;-71
2021/10/11 07:18:39;;;;;;;1999.90;999.90;;;;;;;5.00;52.37;101802.38;6203559;22;96719;-73
2021/10/11 07:21:08;;;;;;;1999.90;999.90;;;;;;;5.00;52.61;101797.09;6203836;22;97772;-72
2021/10/11 07:23:37;;;;;;;1999.90;999.90;;;;;;;5.06;52.09;101805.41;6203328;22;99899;-74
2021/10/11 07:26:06;;;;;;;1999.90;999.90;;;;;;;5.08;52.67;101814.34;6230092;22;96706;-74
2021/10/11 07:28:35;;;;;;;1999.90;999.90;;;;;;;5.13;52.12;101815.50;6177915;22;96611;-70
2021/10/11 07:31:04;;;;;;;1999.90;999.90;;;;;;;5.19;52.32;101826.44;6203940;22;97654;-74
2021/10/11 07:33:31;;;;;;;1999.90;999.90;;;;;;;5.18;53.26;101832.53;6230967;22;97453;-73
2021/10/11 07:35:59;;;;;;;1999.90;999.90;;;;;;;5.27;52.09;101827.78;6231399;22;97782;-70
2021/10/11 07:38:27;;;;;;;1999.90;999.90;;;;;;;5.36;51.96;101827.44;6230471;22;97050;-73
2021/10/11 07:40:57;;;;;;;1999.90;999.90;;;;;;;5.41;51.89;101821.56;6231574;22;96707;-74
2021/10/11 07:43:25;;;;;;;1999.90;999.90;;;;;;;5.39;53.78;101830.25;6229857;22;97849;-74
2021/10/11 07:45:53;;;;;;;1999.90;999.90;;;;;;;5.43;52.56;101827.84;6203513;22;99550;-73
2021/10/11 07:48:20;;;;;;;1999.90;999.90;;;;;;;5.37;54.15;101819.59;6203696;22;97355;-73
2021/10/11 07:50:49;;;;;;;1999.90;999.90;;;;;;;5.41;53.57;101832.13;6204451;22;97358;-73
2021/10/11 07:53:18;;;;;;;1999.90;999.90;;;;;;;5.43;53.34;101830.50;6202700;22;100350;-74
2021/10/11 07:55:46;;;;;;;1999.90;999.90;;;;;;;5.48;53.05;101825.50;6231207;22;97552;-71
2021/10/11 07:58:15;;;;;;;1999.90;999.90;;;;;;;5.53;52.50;101830.22;6231145;22;96972;-73
2021/10/11 08:00:43;;;;;;;1999.90;999.90;;;;;;;5.59;52.96;101829.66;6231498;22;97631;-74
2021/10/11 08:03:11;;;;;;;1999.90;999.90;;;;;;;5.60;53.20;101821.84;6202082;22;98702;-72
2021/10/11 08:05:39;;;;;;;1999.90;999.90;;;;;;;5.63;53.20;101822.00;6203247;22;99185;-73
2021/10/11 08:08:06;;;;;;;1999.90;999.90;;;;;;;5.59;54.03;101827.94;6230932;22;96629;-71
2021/10/11 08:10:35;;;;;;;1999.90;999.90;;;;;;;5.59;54.22;101835.88;6203959;22;97402;-70
2021/10/11 08:13:03;;;;;;;1999.90;999.90;;;;;;;5.65;53.56;101835.31;6202863;22;100890;-69
2021/10/11 08:15:32;;;;;;;1999.90;999.90;;;;;;;5.68;53.55;101836.41;6230014;22;98859;-69
2021/10/11 08:18:00;;;;;;;1999.90;999.90;;;;;;;5.71;53.37;101838.28;6229210;22;97358;-70
2021/10/11 08:20:28;;;;;;;1999.90;999.90;;;;;;;5.67;53.72;101839.84;6228980;22;97062;-72
2021/10/11 08:22:56;;;;;;;1999.90;999.90;;;;;;;5.81;52.46;101848.56;6229039;22;98797;-73
2021/10/11 08:25:23;;;;;;;1999.90;999.90;;;;;;;5.87;52.71;101851.53;6201167;22;100660;-71
2021/10/11 08:27:51;;;;;;;1999.90;999.90;;;;;;;5.87;53.33;101847.16;6200687;22;97281;-73
2021/10/11 08:30:19;;;;;;;1999.90;999.90;;;;;;;5.86;53.84;101847.09;6201348;22;97359;-71
2021/10/11 08:32:48;;;;;;;1999.90;999.90;;;;;;;5.90;53.05;101847.34;6228694;22;97528;-72
2021/10/11 08:35:16;;;;;;;1999.90;999.90;;;;;;;5.95;53.21;101847.63;6228690;22;97531;-73
2021/10/11 08:37:43;;;;;;;1999.90;999.90;;;;;;;6.01;52.70;101847.97;6200904;22;96606;-73
2021/10/11 08:40:12;;;;;;;1999.90;999.90;;;;;;;6.02;53.41;101848.06;6229115;22;96605;-71
2021/10/11 08:42:40;;;;;;;1999.90;999.90;;;;;;;6.08;52.62;101851.03;6201615;22;98929;-74
2021/10/11 08:45:09;;;;;;;1999.90;999.90;;;;;;;6.07;53.30;101849.22;6200606;22;100521;-72
2021/10/11 08:47:37;;;;;;;1999.90;999.90;;;;;;;6.07;53.82;101851.84;6229003;22;97562;-71
2021/10/11 08:50:11;;;;;;;1999.90;999.90;;;;;;;6.08;53.70;101850.13;6227683;22;97057;-74
2021/10/11 08:52:39;;;;;;;1999.90;999.90;;;;;;;6.10;53.05;101849.38;6201705;22;100859;-73
2021/10/11 08:55:08;;;;;;;1999.90;999.90;;;;;;;6.09;53.81;101849.28;6228398;22;97891;-73
2021/10/11 08:57:36;;;;;;;1999.90;999.90;;;;;;;6.11;53.22;101853.84;6229102;22;96596;-70
2021/10/11 09:00:09;;;;;;;1999.90;999.90;;;;;;;6.14;56.40;101861.06;6228863;22;97137;-74
2021/10/11 09:02:37;;;;;;;1999.90;999.90;;;;;;;6.12;53.95;101855.66;6229664;22;97657;-72
2021/10/11 09:05:07;;;;;;;1999.90;999.90;;;;;;;6.15;53.63;101858.50;6227077;22;98813;-72
2021/10/11 09:07:35;;;;;;;1999.90;999.90;;;;;;;6.17;53.39;101859.50;6201314;22;97016;-71
2021/10/11 09:10:07;;;;;;;1999.90;999.90;;;;;;;6.20;53.46;101859.66;6202463;22;97272;-71
2021/10/11 09:12:35;;;;;;;1999.90;999.90;;;;;;;6.24;53.78;101858.09;6201238;22;99259;-72
2021/10/11 09:15:08;;;;;;;1999.90;999.90;;;;;;;6.31;53.69;101854.06;6229219;22;97186;-71
2021/10/11 09:17:39;;;;;;;1999.90;999.90;;;;;;;6.35;53.77;101856.06;6228099;22;97205;-71
2021/10/11 09:20:12;;;;;;;1999.90;999.90;;;;;;;6.36;54.52;101849.97;6229736;22;96683;-72
2021/10/11 09:22:42;;;;;;;1999.90;999.90;;;;;;;6.41;53.86;101845.84;6228758;22;98047;-72
2021/10/11 09:25:12;;;;;;;1999.90;999.90;;;;;;;6.42;54.00;101850.28;6228117;22;97673;-74
2021/10/11 09:27:45;;;;;;;1999.90;999.90;;;;;;;6.49;54.20;101852.47;6175984;22;96933;-72
2021/10/11 09:30:15;;;;;;;1999.90;999.90;;;;;;;6.55;53.19;101845.75;6201652;22;96698;-72
2021/10/11 09:32:43;;;;;;;1999.90;999.90;;;;;;;6.64;52.61;101840.97;6226572;22;99303;-73
2021/10/11 09:35:17;;;;;;;1999.90;999.90;;;;;;;6.75;53.28;101855.66;6201656;22;98935;-74
2021/10/11 09:37:51;;;;;;;1999.90;999.90;;;;;;;6.85;52.63;101855.31;6226856;22;96752;-71
2021/10/11 09:40:20;;;;;;;1999.90;999.90;;;;;;;6.92;52.67;101846.00;6229420;22;97133;-72
2021/10/11 09:42:48;;;;;;;1999.90;999.90;;;;;;;6.96;52.99;101847.97;6200407;22;99244;-73
2021/10/11 09:45:17;;;;;;;1999.90;999.90;;;;;;;7.02;52.37;101840.31;6229054;22;97020;-73
2021/10/11 09:47:46;;;;;;;1999.90;999.90;;;;;;;7.06;52.71;101844.97;6200426;22;97060;-73
2021/10/11 09:50:17;;;;;;;1999.90;999.90;;;;;;;7.03;53.37;101845.72;6229131;22;97465;-72
2021/10/11 09:52:45;;;;;;;1999.90;999.90;;;;;;;7.04;53.19;101833.38;6200641;22;99182;-70
2021/10/11 09:55:14;;;;;;;1999.90;999.90;;;;;;;7.00;53.99;101844.63;6229160;22;98592;-71
2021/10/11 09:57:42;;;;;;;1999.90;999.90;;;;;;;7.01;54.34;101835.88;6200588;22;97509;-74
2021/10/11 10:00:11;;;;;;;1999.90;999.90;;;;;;;7.01;54.19;101833.25;6202207;22;96626;-72
2021/10/11 10:02:41;;;;;;;1999.90;999.90;;;;;;;7.00;54.34;101839.34;6201037;22;99344;-72
2021/10/11 10:05:14;;;;;;;1999.90;999.90;;;;;;;7.06;54.15;101837.03;6202018;22;98338;-73
2021/10/11 10:07:46;;;;;;;1999.90;999.90;;;;;;;7.09;55.30;101842.50;6227658;22;96740;-73
2021/10/11 10:10:14;;;;;;;1999.90;999.90;;;;;;;7.12;54.37;101832.06;6227376;22;96606;-72
2021/10/11 10:12:45;;;;;;;1999.90;999.90;;;;;;;7.17;54.25;101841.13;6228789;22;96669;-70
2021/10/11 10:15:24;;;;;;;1999.90;999.90;;;;;;;7.21;54.04;101840.47;6201223;22;98374;-73
2021/10/11 10:18:00;;;;;;;1999.90;999.90;;;;;;;7.26;54.11;101836.31;6201089;22;97296;-72
2021/10/11 10:20:27;;;;;;;1999.90;999.90;;;;;;;7.33;53.48;101842.84;6229440;22;97082;-73
2021/10/11 10:22:59;;;;;;;1999.90;999.90;;;;;;;7.40;53.21;101844.97;6227733;22;98803;-73
2021/10/11 10:25:27;;;;;;;1999.90;999.90;;;;;;;7.45;52.83;101848.78;6200736;22;97688;-71
2021/10/11 10:28:09;;;;;;;1999.90;999.90;;;;;;;7.31;59.48;101847.16;6228483;22;96635;-73
2021/10/11 10:30:37;;;;;;;1999.90;999.90;;;;;;;7.37;53.91;101847.44;6228812;22;97069;-71
2021/10/11 10:33:07;;;;;;;1999.90;999.90;;;;;;;7.38;53.71;101842.25;6199823;22;100427;-73
2021/10/11 10:35:45;;;;;;;1999.90;999.90;;;;;;;7.41;54.31;101845.06;6201143;22;99225;-74
2021/10/11 10:38:19;;;;;;;1999.90;999.90;;;;;;;7.43;53.87;101842.50;6226043;22;96584;-72
2021/10/11 10:40:47;;;;;;;1999.90;999.90;;;;;;;7.44;53.88;101841.69;6201505;22;97932;-72
2021/10/11 10:43:17;;;;;;;1999.90;999.90;;;;;;;7.46;53.43;101829.41;6227851;22;97609;-71
2021/10/11 10:45:48;;;;;;;1999.90;999.90;;;;;;;7.48;53.17;101833.97;6200893;22;99857;-73
2021/10/11 10:48:17;;;;;;;1999.90;999.90;;;;;;;7.47;53.59;101821.56;6200510;22;97022;-74
2021/10/11 10:50:45;;;;;;;1999.90;999.90;;;;;;;7.49;53.00;101825.16;6228534;22;97008;-72
2021/10/11 10:53:14;;;;;;;1999.90;999.90;;;;;;;7.48;53.77;101812.78;6227860;22;99025;-73
2021/10/11 10:55:43;;;;;;;1999.90;999.90;;;;;;;7.51;53.23;101812.91;6228289;22;97416;-73
2021/10/11 10:58:13;;;;;;;1999.90;999.90;;;;;;;7.55;53.36;101820.19;6226950;22;97216;-71
2021/10/11 11:00:41;;;;;;;1999.90;999.90;;;;;;;7.61;53.36;101819.59;6228262;22;97240;-72